Time;durP1;ratioP1;P1;durP2;ratioP2;P2;SDS_P1;SDS_P2;PMS_P1;PMS_P2;Temp;Humidity;BMP_temperature;BMP_pressure;BME280_temperature;BME280_humidity;BME280_pressure;Samples;Min_cycle;Max_cycle;Signal;HPM_P1;HPM_P2
2022/03/08 00:01:35;;;;;;;;;;;;;;;;;;4467309;32;20335;-79
2022/03/08 00:04:00;;;;;;;;;;;;;;;;;;4467249;32;20000;-81
2022/03/08 00:06:26;;;;;;;;;;;;;;;;;;4468145;32;19947;-77
2022/03/08 00:08:51;;;;;;;;;;;;;;;;;;4467360;32;20321;-77
2022/03/08 00:11:16;;;;;;;;;;;;;;;;;;4467387;32;19970;-78
2022/03/08 00:13:41;;;;;;;;;;;;;;;;;;4467345;32;19981;-77
2022/03/08 00:16:06;;;;;;;;;;;;;;;;;;4468088;32;19940;-80
2022/03/08 00:18:31;;;;;;;;;;;;;;;;;;4466905;32;19958;-78
2022/03/08 00:20:56;;;;;;;;;;;;;;;;;;4467431;32;19969;-78
2022/03/08 00:23:21;;;;;;;;;;;;;;;;;;4452502;32;19959;-78
2022/03/08 00:25:47;;;;;;;;;;;;;;;;;;4467427;32;20276;-79
2022/03/08 00:28:12;;;;;;;;;;;;;;;;;;4468229;32;19983;-78
2022/03/08 00:30:38;;;;;;;;;;;;;;;;;;4466951;32;19944;-82
2022/03/08 00:33:03;;;;;;;;;;;;;;;;;;4467019;32;19969;-78
2022/03/08 00:35:28;;;;;;;;;;;;;;;;;;4466646;32;19951;-79
2022/03/08 00:37:53;;;;;;;;;;;;;;;;;;4468524;32;19947;-79
2022/03/08 00:40:18;;;;;;;;;;;;;;;;;;4468684;32;19940;-78
2022/03/08 00:42:43;;;;;;;;;;;;;;;;;;4466914;32;19936;-79
2022/03/08 00:45:08;;;;;;;;;;;;;;;;;;4467382;32;19932;-79
2022/03/08 00:47:34;;;;;;;;;;;;;;;;;;4467187;32;19983;-79
2022/03/08 00:49:59;;;;;;;;;;;;;;;;;;4466881;32;19963;-77
2022/03/08 00:52:24;;;;;;;;;;;;;;;;;;4467321;32;20292;-80
2022/03/08 00:54:49;;;;;;;;;;;;;;;;;;4452794;32;19968;-78
2022/03/08 00:57:14;;;;;;;;;;;;;;;;;;4467062;32;19932;-78
2022/03/08 00:59:39;;;;;;;;;;;;;;;;;;4466985;32;19932;-78
2022/03/08 01:02:04;;;;;;;;;;;;;;;;;;4463833;32;19970;-79
2022/03/08 01:04:29;;;;;;;;;;;;;;;;;;4453862;32;20292;-79
2022/03/08 01:06:55;;;;;;;;;;;;;;;;;;4454850;32;20004;-77
2022/03/08 01:09:20;;;;;;;;;;;;;;;;;;4454843;32;19947;-78
2022/03/08 01:11:45;;;;;;;;;;;;;;;;;;4454147;32;20351;-79
2022/03/08 01:14:10;;;;;;;;;;;;;;;;;;4453956;32;19971;-78
2022/03/08 01:16:35;;;;;;;;;;;;;;;;;;4454548;32;19945;-78
2022/03/08 01:19:00;;;;;;;;;;;;;;;;;;4453913;32;20397;-79
2022/03/08 01:21:25;;;;;;;;;;;;;;;;;;4454148;32;20263;-79
2022/03/08 01:23:50;;;;;;;;;;;;;;;;;;4454677;32;20343;-79
2022/03/08 01:26:16;;;;;;;;;;;;;;;;;;4454197;32;19947;-77
2022/03/08 01:28:41;;;;;;;;;;;;;;;;;;4453852;32;19932;-76
2022/03/08 01:31:06;;;;;;;;;;;;;;;;;;4453926;32;19932;-77
2022/03/08 01:33:31;;;;;;;;;;;;;;;;;;4453880;32;19943;-79
2022/03/08 01:35:56;;;;;;;;;;;;;;;;;;4439121;32;20318;-78
2022/03/08 01:38:21;;;;;;;;;;;;;;;;;;4453786;32;20338;-78
2022/03/08 01:40:46;;;;;;;;;;;;;;;;;;4453939;32;19933;-80
2022/03/08 01:43:11;;;;;;;;;;;;;;;;;;4454385;32;19952;-77
2022/03/08 01:45:36;;;;;;;;;;;;;;;;;;4460965;32;20321;-80
2022/03/08 01:48:01;;;;;;;;;;;;;;;;;;4468826;32;19940;-79
2022/03/08 01:50:26;;;;;;;;;;;;;;;;;;4454643;32;19933;-82
2022/03/08 01:52:51;;;;;;;;;;;;;;;;;;4469052;32;19936;-81
2022/03/08 01:55:17;;;;;;;;;;;;;;;;;;4469383;32;19946;-78
2022/03/08 01:57:42;;;;;;;;;;;;;;;;;;4469075;32;19943;-80
2022/03/08 02:00:07;;;;;;;;;;;;;;;;;;4469820;32;19936;-79
2022/03/08 02:02:32;;;;;;;;;;;;;;;;;;4454866;32;20335;-79
2022/03/08 02:04:57;;;;;;;;;;;;;;;;;;4455624;32;19960;-79
2022/03/08 02:07:22;;;;;;;;;;;;;;;;;;4464139;32;19932;-79
2022/03/08 02:09:47;;;;;;;;;;;;;;;;;;4453224;32;19937;-79
2022/03/08 02:12:12;;;;;;;;;;;;;;;;;;4439393;32;19949;-80
2022/03/08 02:14:38;;;;;;;;;;;;;;;;;;4452587;32;20242;-79
2022/03/08 02:17:03;;;;;;;;;;;;;;;;;;4453319;32;19971;-79
2022/03/08 02:19:28;;;;;;;;;;;;;;;;;;4453358;32;20358;-78
2022/03/08 02:21:54;;;;;;;;;;;;;;;;;;4438795;32;19948;-80
2022/03/08 02:24:19;;;;;;;;;;;;;;;;;;4453680;32;19973;-80
2022/03/08 02:26:44;;;;;;;;;;;;;;;;;;4453333;32;19932;-80
2022/03/08 02:29:11;;;;;;;;;;;;;;;;;;4439253;32;19968;-80
2022/03/08 02:31:36;;;;;;;;;;;;;;;;;;4438939;32;19953;-80
2022/03/08 02:34:01;;;;;;;;;;;;;;;;;;4452989;32;19980;-80
2022/03/08 02:36:26;;;;;;;;;;;;;;;;;;4452994;32;19976;-81
2022/03/08 02:38:51;;;;;;;;;;;;;;;;;;4452238;32;19968;-78
2022/03/08 02:41:16;;;;;;;;;;;;;;;;;;4452590;32;20322;-80
2022/03/08 02:43:41;;;;;;;;;;;;;;;;;;4453555;32;19932;-80
2022/03/08 02:46:06;;;;;;;;;;;;;;;;;;4439964;32;19954;-79
2022/03/08 02:48:32;;;;;;;;;;;;;;;;;;4453861;32;19937;-80
2022/03/08 02:50:57;;;;;;;;;;;;;;;;;;4453686;32;19946;-79
2022/03/08 02:53:22;;;;;;;;;;;;;;;;;;4453622;32;20299;-81
2022/03/08 02:55:47;;;;;;;;;;;;;;;;;;4453270;32;19947;-80
2022/03/08 02:58:12;;;;;;;;;;;;;;;;;;4453579;32;19988;-80
2022/03/08 03:00:37;;;;;;;;;;;;;;;;;;4453350;32;19932;-80
2022/03/08 03:03:02;;;;;;;;;;;;;;;;;;4453715;32;19970;-80
2022/03/08 03:05:27;;;;;;;;;;;;;;;;;;4453421;32;19995;-80
2022/03/08 03:07:53;;;;;;;;;;;;;;;;;;4452900;32;20289;-79
2022/03/08 03:10:18;;;;;;;;;;;;;;;;;;4452716;32;20306;-80
2022/03/08 03:12:43;;;;;;;;;;;;;;;;;;4452315;32;20408;-81
2022/03/08 03:15:11;;;;;;;;;;;;;;;;;;4452340;32;19936;-80
2022/03/08 03:17:36;;;;;;;;;;;;;;;;;;4453054;32;19951;-79
2022/03/08 03:20:01;;;;;;;;;;;;;;;;;;4452568;32;19932;-80
2022/03/08 03:22:26;;;;;;;;;;;;;;;;;;4452582;32;19965;-80
2022/03/08 03:24:51;;;;;;;;;;;;;;;;;;4452789;32;20318;-80
2022/03/08 03:27:16;;;;;;;;;;;;;;;;;;4452630;32;19946;-77
2022/03/08 03:29:42;;;;;;;;;;;;;;;;;;4453248;32;19940;-79
2022/03/08 03:32:07;;;;;;;;;;;;;;;;;;4452621;32;19947;-80
2022/03/08 03:34:32;;;;;;;;;;;;;;;;;;4451955;32;19944;-80
2022/03/08 03:36:57;;;;;;;;;;;;;;;;;;4452057;32;19951;-80
2022/03/08 03:39:22;;;;;;;;;;;;;;;;;;4452237;32;19952;-79
2022/03/08 03:41:47;;;;;;;;;;;;;;;;;;4452412;32;19936;-79
2022/03/08 03:44:12;;;;;;;;;;;;;;;;;;4451867;32;19932;-79
2022/03/08 03:46:37;;;;;;;;;;;;;;;;;;4465918;32;19974;-80
2022/03/08 03:49:03;;;;;;;;;;;;;;;;;;4467737;32;20339;-80
2022/03/08 03:51:28;;;;;;;;;;;;;;;;;;4467255;32;19950;-80
2022/03/08 03:53:53;;;;;;;;;;;;;;;;;;4467213;32;20265;-81
2022/03/08 03:56:18;;;;;;;;;;;;;;;;;;4467249;32;20234;-80
2022/03/08 03:58:43;;;;;;;;;;;;;;;;;;4452997;32;19932;-78
2022/03/08 04:01:08;;;;;;;;;;;;;;;;;;4467633;32;19932;-79
2022/03/08 04:03:34;;;;;;;;;;;;;;;;;;4467484;32;19966;-80
2022/03/08 04:05:59;;;;;;;;;;;;;;;;;;4468356;32;19936;-79
2022/03/08 04:08:24;;;;;;;;;;;;;;;;;;4467260;32;19948;-81
2022/03/08 04:10:49;;;;;;;;;;;;;;;;;;4467393;32;19991;-80
2022/03/08 04:13:14;;;;;;;;;;;;;;;;;;4467626;32;19932;-80
2022/03/08 04:15:39;;;;;;;;;;;;;;;;;;4469344;32;19971;-79
2022/03/08 04:18:08;;;;;;;;;;;;;;;;;;4463750;32;19940;-77
2022/03/08 04:20:33;;;;;;;;;;;;;;;;;;4451132;32;19936;-79
2022/03/08 04:22:58;;;;;;;;;;;;;;;;;;4451125;32;19986;-81
2022/03/08 04:25:23;;;;;;;;;;;;;;;;;;4451086;32;19954;-79
2022/03/08 04:27:48;;;;;;;;;;;;;;;;;;4450047;32;19936;-79
2022/03/08 04:30:13;;;;;;;;;;;;;;;;;;4450217;32;19949;-78
2022/03/08 04:32:38;;;;;;;;;;;;;;;;;;4451454;32;20254;-81
2022/03/08 04:35:05;;;;;;;;;;;;;;;;;;4450746;32;19936;-80
2022/03/08 04:37:30;;;;;;;;;;;;;;;;;;4453680;32;19991;-81
2022/03/08 04:39:55;;;;;;;;;;;;;;;;;;4454107;32;20203;-80
2022/03/08 04:42:20;;;;;;;;;;;;;;;;;;4454320;32;19967;-80
2022/03/08 04:44:45;;;;;;;;;;;;;;;;;;4456473;32;19955;-82
2022/03/08 04:47:10;;;;;;;;;;;;;;;;;;4470581;32;20354;-80
2022/03/08 04:49:35;;;;;;;;;;;;;;;;;;4470192;32;19951;-77
2022/03/08 04:52:01;;;;;;;;;;;;;;;;;;4470473;32;20087;-76
2022/03/08 04:54:26;;;;;;;;;;;;;;;;;;4469762;32;19979;-79
2022/03/08 04:56:51;;;;;;;;;;;;;;;;;;4469889;32;19936;-79
2022/03/08 04:59:17;;;;;;;;;;;;;;;;;;4469890;32;19928;-79
2022/03/08 05:01:42;;;;;;;;;;;;;;;;;;4470122;32;19965;-79
2022/03/08 05:04:07;;;;;;;;;;;;;;;;;;4470890;32;19936;-79
2022/03/08 05:06:32;;;;;;;;;;;;;;;;;;4470073;32;19972;-79
2022/03/08 05:08:57;;;;;;;;;;;;;;;;;;4469107;32;19932;-81
2022/03/08 05:11:22;;;;;;;;;;;;;;;;;;4456363;32;19947;-80
2022/03/08 05:13:48;;;;;;;;;;;;;;;;;;4469216;32;19948;-80
2022/03/08 05:16:13;;;;;;;;;;;;;;;;;;4455342;32;20257;-80
2022/03/08 05:18:38;;;;;;;;;;;;;;;;;;4469283;32;19932;-78
2022/03/08 05:21:03;;;;;;;;;;;;;;;;;;4455042;32;19988;-81
2022/03/08 05:23:28;;;;;;;;;;;;;;;;;;4451538;32;19955;-80
2022/03/08 05:25:53;;;;;;;;;;;;;;;;;;4452298;32;19989;-78
2022/03/08 05:28:18;;;;;;;;;;;;;;;;;;4453163;32;20317;-80
2022/03/08 05:30:45;;;;;;;;;;;;;;;;;;4453599;32;20366;-80
2022/03/08 05:33:10;;;;;;;;;;;;;;;;;;4454069;32;19972;-80
2022/03/08 05:35:35;;;;;;;;;;;;;;;;;;4453271;32;19973;-80
2022/03/08 05:38:01;;;;;;;;;;;;;;;;;;4454393;32;19968;-81
2022/03/08 05:40:26;;;;;;;;;;;;;;;;;;4453447;32;19960;-79
2022/03/08 05:42:51;;;;;;;;;;;;;;;;;;4453392;32;19967;-76
2022/03/08 05:45:16;;;;;;;;;;;;;;;;;;4454008;32;19943;-80
2022/03/08 05:47:41;;;;;;;;;;;;;;;;;;4452484;32;19991;-81
2022/03/08 05:50:06;;;;;;;;;;;;;;;;;;4452499;32;19940;-76
2022/03/08 05:52:32;;;;;;;;;;;;;;;;;;4453446;32;19997;-80
2022/03/08 05:54:57;;;;;;;;;;;;;;;;;;4451978;32;20251;-81
2022/03/08 05:57:22;;;;;;;;;;;;;;;;;;4453580;32;19932;-78
2022/03/08 05:59:49;;;;;;;;;;;;;;;;;;4453542;32;19947;-81
2022/03/08 06:02:14;;;;;;;;;;;;;;;;;;4453508;32;19963;-80
2022/03/08 06:04:42;;;;;;;;;;;;;;;;;;4453398;32;19936;-81
2022/03/08 06:07:07;;;;;;;;;;;;;;;;;;4453816;32;19984;-81
2022/03/08 06:09:32;;;;;;;;;;;;;;;;;;4451868;32;19936;-79
2022/03/08 06:12:00;;;;;;;;;;;;;;;;;;4453679;32;19995;-80
2022/03/08 06:14:25;;;;;;;;;;;;;;;;;;4454035;32;19959;-81
2022/03/08 06:16:50;;;;;;;;;;;;;;;;;;4452248;32;19968;-78
2022/03/08 06:19:16;;;;;;;;;;;;;;;;;;4453860;32;19956;-81
2022/03/08 06:21:41;;;;;;;;;;;;;;;;;;4453326;32;19976;-78
2022/03/08 06:24:06;;;;;;;;;;;;;;;;;;4454444;32;19933;-80
2022/03/08 06:26:31;;;;;;;;;;;;;;;;;;4453321;32;19944;-76
2022/03/08 06:28:57;;;;;;;;;;;;;;;;;;4453578;32;20281;-76
2022/03/08 06:31:22;;;;;;;;;;;;;;;;;;4455018;32;19970;-82
2022/03/08 06:33:47;;;;;;;;;;;;;;;;;;4453863;32;19951;-78
2022/03/08 06:36:15;;;;;;;;;;;;;;;;;;4454387;32;19963;-76
2022/03/08 06:38:40;;;;;;;;;;;;;;;;;;4454284;32;19967;-78
2022/03/08 06:41:05;;;;;;;;;;;;;;;;;;4452964;32;19955;-77
2022/03/08 06:43:30;;;;;;;;;;;;;;;;;;4453331;32;20289;-76
2022/03/08 06:45:55;;;;;;;;;;;;;;;;;;4458284;32;19983;-77
2022/03/08 06:48:20;;;;;;;;;;;;;;;;;;4451436;32;19968;-76
2022/03/08 06:50:46;;;;;;;;;;;;;;;;;;4453575;32;19933;-79
2022/03/08 06:53:11;;;;;;;;;;;;;;;;;;4452664;32;19982;-77
2022/03/08 06:55:36;;;;;;;;;;;;;;;;;;4452841;32;19940;-80
2022/03/08 06:58:01;;;;;;;;;;;;;;;;;;4452627;32;19936;-78
2022/03/08 07:00:26;;;;;;;;;;;;;;;;;;4452268;32;19967;-77
2022/03/08 07:02:51;;;;;;;;;;;;;;;;;;4452153;32;19945;-79
2022/03/08 07:05:16;;;;;;;;;;;;;;;;;;4452317;32;19932;-79
2022/03/08 07:07:42;;;;;;;;;;;;;;;;;;4453759;32;19959;-81
2022/03/08 07:10:07;;;;;;;;;;;;;;;;;;4464594;32;20352;-77
2022/03/08 07:12:32;;;;;;;;;;;;;;;;;;4467692;32;19976;-75
2022/03/08 07:14:57;;;;;;;;;;;;;;;;;;4468069;32;19966;-77
2022/03/08 07:17:22;;;;;;;;;;;;;;;;;;4468053;32;19936;-77
2022/03/08 07:19:47;;;;;;;;;;;;;;;;;;4467436;32;20340;-80
2022/03/08 07:22:15;;;;;;;;;;;;;;;;;;4466872;32;20355;-80
2022/03/08 07:24:40;;;;;;;;;;;;;;;;;;4452591;32;19963;-78
2022/03/08 07:27:08;;;;;;;;;;;;;;;;;;4467203;32;19947;-81
2022/03/08 07:29:33;;;;;;;;;;;;;;;;;;4452791;32;20336;-80
2022/03/08 07:31:58;;;;;;;;;;;;;;;;;;4453154;32;19950;-77
2022/03/08 07:34:24;;;;;;;;;;;;;;;;;;4452887;32;20281;-80
2022/03/08 07:36:49;;;;;;;;;;;;;;;;;;4467713;32;19936;-76
2022/03/08 07:39:14;;;;;;;;;;;;;;;;;;4467075;32;19936;-80
2022/03/08 07:41:39;;;;;;;;;;;;;;;;;;4467317;32;19958;-78
2022/03/08 07:44:04;;;;;;;;;;;;;;;;;;4467536;32;20314;-80
2022/03/08 07:46:29;;;;;;;;;;;;;;;;;;4467415;32;19932;-77
2022/03/08 07:48:55;;;;;;;;;;;;;;;;;;4467290;32;19951;-81
2022/03/08 07:51:20;;;;;;;;;;;;;;;;;;4470272;32;20526;-78
2022/03/08 07:53:45;;;;;;;;;;;;;;;;;;4454013;32;19935;-78
2022/03/08 07:56:10;;;;;;;;;;;;;;;;;;4466906;32;19947;-77
2022/03/08 07:58:38;;;;;;;;;;;;;;;;;;4466813;32;19980;-79
2022/03/08 08:01:03;;;;;;;;;;;;;;;;;;4452746;32;20261;-77
2022/03/08 08:03:28;;;;;;;;;;;;;;;;;;4453096;32;20229;-76
2022/03/08 08:05:53;;;;;;;;;;;;;;;;;;4452904;32;19940;-79
2022/03/08 08:08:18;;;;;;;;;;;;;;;;;;4466852;32;20018;-80
2022/03/08 08:10:43;;;;;;;;;;;;;;;;;;4466494;32;19979;-78
2022/03/08 08:13:09;;;;;;;;;;;;;;;;;;4467031;32;19975;-79
2022/03/08 08:15:36;;;;;;;;;;;;;;;;;;4452886;32;19940;-78
2022/03/08 08:18:01;;;;;;;;;;;;;;;;;;4466697;32;20384;-79
2022/03/08 08:20:26;;;;;;;;;;;;;;;;;;4467373;32;20246;-79
2022/03/08 08:22:54;;;;;;;;;;;;;;;;;;4467188;32;19947;-78
2022/03/08 08:25:20;;;;;;;;;;;;;;;;;;4466977;32;19936;-80
2022/03/08 08:27:45;;;;;;;;;;;;;;;;;;4467830;32;19947;-81
2022/03/08 08:30:13;;;;;;;;;;;;;;;;;;4466610;32;19996;-82
2022/03/08 08:32:38;;;;;;;;;;;;;;;;;;4467095;32;19951;-79
2022/03/08 08:35:03;;;;;;;;;;;;;;;;;;4466544;32;19996;-78
2022/03/08 08:37:28;;;;;;;;;;;;;;;;;;4466923;32;20320;-81
2022/03/08 08:39:53;;;;;;;;;;;;;;;;;;4467138;32;19984;-79
2022/03/08 08:42:18;;;;;;;;;;;;;;;;;;4466827;32;19937;-77
2022/03/08 08:44:43;;;;;;;;;;;;;;;;;;4466733;32;19959;-82
2022/03/08 08:47:08;;;;;;;;;;;;;;;;;;4452610;32;19984;-80
2022/03/08 08:49:34;;;;;;;;;;;;;;;;;;4452440;32;19950;-78
2022/03/08 08:51:59;;;;;;;;;;;;;;;;;;4452365;32;19987;-80
2022/03/08 08:54:24;;;;;;;;;;;;;;;;;;4452216;32;19940;-79
2022/03/08 08:56:49;;;;;;;;;;;;;;;;;;4466921;32;20081;-81
2022/03/08 08:59:14;;;;;;;;;;;;;;;;;;4467081;32;20294;-79
2022/03/08 09:01:39;;;;;;;;;;;;;;;;;;4466274;32;20298;-80
2022/03/08 09:04:04;;;;;;;;;;;;;;;;;;4466954;32;19972;-80
2022/03/08 09:06:30;;;;;;;;;;;;;;;;;;4466722;32;19986;-81
2022/03/08 09:08:59;;;;;;;;;;;;;;;;;;4452368;32;19942;-79
2022/03/08 09:11:24;;;;;;;;;;;;;;;;;;4466468;32;19976;-81
2022/03/08 09:13:49;;;;;;;;;;;;;;;;;;4466906;32;19952;-79
2022/03/08 09:16:17;;;;;;;;;;;;;;;;;;4466445;32;19984;-79
2022/03/08 09:18:43;;;;;;;;;;;;;;;;;;4466807;32;19951;-77
2022/03/08 09:21:10;;;;;;;;;;;;;;;;;;4452231;32;19933;-77
2022/03/08 09:23:42;;;;;;;;;;;;;;;;;;4454248;32;19939;-81
2022/03/08 09:26:16;;;;;;;;;;;;;;;;;;4469476;32;19947;-81
2022/03/08 09:28:41;;;;;;;;;;;;;;;;;;4469544;32;20007;-81
2022/03/08 09:31:06;;;;;;;;;;;;;;;;;;4469417;32;19941;-82
2022/03/08 09:33:31;;;;;;;;;;;;;;;;;;4455242;32;20274;-78
2022/03/08 09:35:59;;;;;;;;;;;;;;;;;;4469126;32;19944;-81
2022/03/08 09:38:28;;;;;;;;;;;;;;;;;;4454729;32;19947;-80
2022/03/08 09:40:58;;;;;;;;;;;;;;;;;;4468752;32;19947;-80
2022/03/08 09:43:24;;;;;;;;;;;;;;;;;;4454450;32;19973;-82
2022/03/08 09:45:49;;;;;;;;;;;;;;;;;;4469052;32;19958;-81
2022/03/08 09:48:21;;;;;;;;;;;;;;;;;;4468894;32;19947;-80
2022/03/08 09:50:52;;;;;;;;;;;;;;;;;;4469492;32;19950;-81
2022/03/08 09:53:37;;;;;;;;;;;;;;;;;;;;;
2022/03/08 09:56:20;;;;;;;;;;;;;;;;;;4468607;32;19940;-81
2022/03/08 09:58:46;;;;;;;;;;;;;;;;;;4454336;32;19952;-81
2022/03/08 10:01:11;;;;;;;;;;;;;;;;;;4468869;32;19951;-81
2022/03/08 10:03:39;;;;;;;;;;;;;;;;;;4454933;32;19942;-81
2022/03/08 10:06:25;;;;;;;;;;;;;;;;;;4469203;32;19950;-81
2022/03/08 10:08:50;;;;;;;;;;;;;;;;;;4468233;32;19951;-81
2022/03/08 10:11:15;;;;;;;;;;;;;;;;;;4454358;32;19936;-81
2022/03/08 10:13:42;;;;;;;;;;;;;;;;;;4454708;32;19986;-81
2022/03/08 10:16:16;;;;;;;;;;;;;;;;;;4453910;32;19932;-80
2022/03/08 10:18:49;;;;;;;;;;;;;;;;;;4468758;32;19973;-80
2022/03/08 10:21:23;;;;;;;;;;;;;;;;;;4468579;32;20319;-81
2022/03/08 10:23:48;;;;;;;;;;;;;;;;;;4469116;32;20293;-82
2022/03/08 10:26:22;;;;;;;;;;;;;;;;;;4454374;32;19946;-81
2022/03/08 10:28:56;;;;;;;;;;;;;;;;;;4468877;32;20336;-81
2022/03/08 10:31:24;;;;;;;;;;;;;;;;;;4454988;32;19936;-81
2022/03/08 10:33:52;;;;;;;;;;;;;;;;;;4452457;32;19932;-81
2022/03/08 10:36:21;;;;;;;;;;;;;;;;;;4454213;32;20293;-81
2022/03/08 10:38:49;;;;;;;;;;;;;;;;;;4468271;32;19948;-82
2022/03/08 10:41:23;;;;;;;;;;;;;;;;;;4453649;32;20375;-81
2022/03/08 10:43:48;;;;;;;;;;;;;;;;;;4468924;32;19952;-81
2022/03/08 10:46:13;;;;;;;;;;;;;;;;;;4467956;32;20250;-80
2022/03/08 10:48:38;;;;;;;;;;;;;;;;;;4468687;32;20319;-80
2022/03/08 10:51:04;;;;;;;;;;;;;;;;;;4468324;32;19940;-80
2022/03/08 10:53:50;;;;;;;;;;;;;;;;;;4467985;32;19951;-81
2022/03/08 10:56:14;;;;;;;;;;;;;;;;;;4467839;32;19973;-80
2022/03/08 10:58:39;;;;;;;;;;;;;;;;;;4468248;32;20028;-81
2022/03/08 11:01:04;;;;;;;;;;;;;;;;;;4468448;32;20355;-81
2022/03/08 11:03:30;;;;;;;;;;;;;;;;;;4468620;32;20341;-81
2022/03/08 11:06:05;;;;;;;;;;;;;;;;;;4469183;32;20308;-81
2022/03/08 11:11:16;;;;;;;;;;;;;;;;;;4435249;32;19958;-81
2022/03/08 11:16:42;;;;;;;;;;;;;;;;;;4404316;32;19983;-81
2022/03/08 11:19:29;;;;;;;;;;;;;;;;;;;;;
2022/03/08 11:25:10;;;;;;;;;;;;;;;;;;4359704;32;19937;-81
2022/03/08 11:28:18;;;;;;;;;;;;;;;;;;;;;
2022/03/08 11:30:29;;;;;;;;;;;;;;;;;;4356451;32;19997;-82
2022/03/08 11:33:07;;;;;;;;;;;;;;;;;;4374340;32;19938;-82
2022/03/08 11:46:35;;;;;;;;;;;;;;;;;;4380771;32;19952;-82
2022/03/08 11:54:43;;;;;;;;;;;;;;;;;;4381094;32;19938;-81
2022/03/08 11:57:20;;;;;;;;;;;;;;;;;;4389313;32;19996;-82
2022/03/08 11:59:49;;;;;;;;;;;;;;;;;;4458485;32;19932;-81
2022/03/08 12:02:17;;;;;;;;;;;;;;;;;;4452748;32;19952;-82
2022/03/08 12:04:53;;;;;;;;;;;;;;;;;;4453169;32;19939;-82
2022/03/08 12:10:12;;;;;;;;;;;;;;;;;;4431474;32;19974;-81
2022/03/08 12:12:56;;;;;;;;;;;;;;;;;;4421018;32;19933;-82
2022/03/08 12:15:24;;;;;;;;;;;;;;;;;;4421138;32;19983;-82
2022/03/08 12:17:52;;;;;;;;;;;;;;;;;;4434252;32;19971;-82
2022/03/08 12:20:18;;;;;;;;;;;;;;;;;;4433819;32;20392;-82
2022/03/08 12:22:43;;;;;;;;;;;;;;;;;;4433632;32;19933;-80
2022/03/08 12:25:08;;;;;;;;;;;;;;;;;;4420919;32;19959;-81
2022/03/08 12:27:33;;;;;;;;;;;;;;;;;;4433755;32;19949;-80
2022/03/08 12:29:58;;;;;;;;;;;;;;;;;;4433416;32;19937;-80
2022/03/08 12:32:23;;;;;;;;;;;;;;;;;;4457627;32;20340;-81
2022/03/08 12:34:51;;;;;;;;;;;;;;;;;;4466910;32;20329;-79
2022/03/08 12:37:16;;;;;;;;;;;;;;;;;;4466874;32;19944;-82
2022/03/08 12:39:42;;;;;;;;;;;;;;;;;;4466624;32;20297;-80
2022/03/08 12:42:16;;;;;;;;;;;;;;;;;;4466679;32;19971;-83
2022/03/08 12:44:41;;;;;;;;;;;;;;;;;;4467440;32;19943;-82
2022/03/08 12:47:07;;;;;;;;;;;;;;;;;;4467041;32;20277;-79
2022/03/08 12:49:32;;;;;;;;;;;;;;;;;;4466867;32;19960;-82
2022/03/08 12:52:06;;;;;;;;;;;;;;;;;;4466465;32;20358;-81
2022/03/08 12:54:31;;;;;;;;;;;;;;;;;;4466840;32;19999;-81
2022/03/08 12:56:56;;;;;;;;;;;;;;;;;;4452664;32;20378;-81
2022/03/08 12:59:24;;;;;;;;;;;;;;;;;;4469700;32;19937;-80
2022/03/08 13:01:49;;;;;;;;;;;;;;;;;;4455067;32;19928;-81
2022/03/08 13:04:15;;;;;;;;;;;;;;;;;;4469638;32;19951;-81
2022/03/08 13:06:40;;;;;;;;;;;;;;;;;;4469942;32;19979;-81
2022/03/08 13:09:12;;;;;;;;;;;;;;;;;;4455497;32;19996;-81
2022/03/08 13:11:40;;;;;;;;;;;;;;;;;;4469193;32;19973;-81
2022/03/08 13:14:05;;;;;;;;;;;;;;;;;;4455055;32;19932;-82
2022/03/08 13:16:30;;;;;;;;;;;;;;;;;;4469957;32;19970;-82
2022/03/08 13:18:55;;;;;;;;;;;;;;;;;;4469337;32;19940;-83
2022/03/08 13:21:20;;;;;;;;;;;;;;;;;;4469430;32;19936;-83
2022/03/08 13:23:46;;;;;;;;;;;;;;;;;;4470004;32;19940;-82
2022/03/08 13:26:11;;;;;;;;;;;;;;;;;;4455168;32;20324;-82
2022/03/08 13:28:36;;;;;;;;;;;;;;;;;;4469379;32;20298;-79
2022/03/08 13:31:01;;;;;;;;;;;;;;;;;;4469904;32;19974;-81
2022/03/08 13:33:26;;;;;;;;;;;;;;;;;;4468955;32;19939;-80
2022/03/08 13:35:51;;;;;;;;;;;;;;;;;;4454448;32;19968;-77
2022/03/08 13:38:17;;;;;;;;;;;;;;;;;;4469412;32;19944;-79
2022/03/08 13:40:42;;;;;;;;;;;;;;;;;;4454851;32;19940;-81
2022/03/08 13:43:07;;;;;;;;;;;;;;;;;;4469251;32;19935;-79
2022/03/08 13:45:32;;;;;;;;;;;;;;;;;;4469081;32;20263;-80
2022/03/08 13:47:58;;;;;;;;;;;;;;;;;;4468932;32;19959;-81
2022/03/08 13:50:23;;;;;;;;;;;;;;;;;;4468804;32;19942;-81
2022/03/08 13:52:49;;;;;;;;;;;;;;;;;;4469355;32;19932;-83
2022/03/08 13:55:16;;;;;;;;;;;;;;;;;;4468609;32;20292;-82
2022/03/08 13:57:41;;;;;;;;;;;;;;;;;;4468941;32;20348;-83
2022/03/08 14:00:06;;;;;;;;;;;;;;;;;;4468772;32;19972;-82
2022/03/08 14:02:32;;;;;;;;;;;;;;;;;;4468568;32;20309;-83
2022/03/08 14:04:57;;;;;;;;;;;;;;;;;;4468951;32;20000;-83
2022/03/08 14:07:22;;;;;;;;;;;;;;;;;;4469018;32;19965;-82
2022/03/08 14:09:53;;;;;;;;;;;;;;;;;;4453604;32;19941;-83
2022/03/08 14:12:18;;;;;;;;;;;;;;;;;;4468801;32;19936;-82
2022/03/08 14:14:46;;;;;;;;;;;;;;;;;;4454417;32;19950;-82
2022/03/08 14:17:12;;;;;;;;;;;;;;;;;;4468716;32;20269;-79
2022/03/08 14:19:40;;;;;;;;;;;;;;;;;;4468745;32;20257;-82
2022/03/08 14:22:05;;;;;;;;;;;;;;;;;;4468339;32;19954;-82
2022/03/08 14:24:30;;;;;;;;;;;;;;;;;;4469251;32;19984;-78
2022/03/08 14:26:55;;;;;;;;;;;;;;;;;;4454341;32;19951;-81
2022/03/08 14:29:20;;;;;;;;;;;;;;;;;;4468475;32;19971;-81
2022/03/08 14:31:46;;;;;;;;;;;;;;;;;;4468738;32;19932;-82
2022/03/08 14:34:11;;;;;;;;;;;;;;;;;;4468210;32;19941;-81
2022/03/08 14:36:36;;;;;;;;;;;;;;;;;;4468401;32;20250;-81
2022/03/08 14:39:01;;;;;;;;;;;;;;;;;;4468158;32;20318;-80
2022/03/08 14:41:29;;;;;;;;;;;;;;;;;;4467757;32;20358;-79
2022/03/08 14:43:54;;;;;;;;;;;;;;;;;;4468010;32;19944;-79
2022/03/08 14:46:19;;;;;;;;;;;;;;;;;;4453578;32;20010;-80
2022/03/08 14:48:44;;;;;;;;;;;;;;;;;;4468404;32;19932;-81
2022/03/08 14:51:09;;;;;;;;;;;;;;;;;;4468008;32;19932;-80
2022/03/08 14:53:34;;;;;;;;;;;;;;;;;;4468097;32;19946;-81
2022/03/08 14:55:59;;;;;;;;;;;;;;;;;;4469313;32;19972;-80
2022/03/08 14:58:37;;;;;;;;;;;;;;;;;;;;;
2022/03/08 15:01:05;;;;;;;;;;;;;;;;;;4467659;32;19955;-81
2022/03/08 15:03:30;;;;;;;;;;;;;;;;;;4467510;32;20353;-81
2022/03/08 15:05:55;;;;;;;;;;;;;;;;;;4453746;32;20295;-81
2022/03/08 15:08:20;;;;;;;;;;;;;;;;;;4468085;32;19928;-81
2022/03/08 15:10:46;;;;;;;;;;;;;;;;;;4453624;32;19946;-82
2022/03/08 15:13:11;;;;;;;;;;;;;;;;;;4467772;32;19940;-80
2022/03/08 15:15:36;;;;;;;;;;;;;;;;;;4467401;32;19984;-81
2022/03/08 15:18:01;;;;;;;;;;;;;;;;;;4467480;32;19941;-78
2022/03/08 15:20:29;;;;;;;;;;;;;;;;;;4452824;32;19936;-80
2022/03/08 15:22:54;;;;;;;;;;;;;;;;;;4467395;32;20317;-80
2022/03/08 15:25:19;;;;;;;;;;;;;;;;;;4467295;32;19947;-81
2022/03/08 15:27:44;;;;;;;;;;;;;;;;;;4467697;32;20302;-79
2022/03/08 15:30:12;;;;;;;;;;;;;;;;;;4453225;32;20281;-82
2022/03/08 15:32:37;;;;;;;;;;;;;;;;;;4467216;32;19950;-81
2022/03/08 15:35:02;;;;;;;;;;;;;;;;;;4466905;32;19940;-81
2022/03/08 15:37:27;;;;;;;;;;;;;;;;;;4467713;32;19936;-81
2022/03/08 15:39:53;;;;;;;;;;;;;;;;;;4466951;32;20316;-81
2022/03/08 15:42:18;;;;;;;;;;;;;;;;;;4453705;32;20309;-78
2022/03/08 15:44:43;;;;;;;;;;;;;;;;;;4467181;32;19952;-79
2022/03/08 15:47:09;;;;;;;;;;;;;;;;;;4467088;32;19940;-80
2022/03/08 15:49:34;;;;;;;;;;;;;;;;;;4467070;32;19936;-81
2022/03/08 15:51:59;;;;;;;;;;;;;;;;;;4452900;32;19966;-82
2022/03/08 15:54:24;;;;;;;;;;;;;;;;;;4466788;32;19948;-80
2022/03/08 15:56:50;;;;;;;;;;;;;;;;;;4453137;32;19973;-81
2022/03/08 15:59:15;;;;;;;;;;;;;;;;;;4467184;32;20215;-81
2022/03/08 16:01:40;;;;;;;;;;;;;;;;;;4466683;32;19932;-81
2022/03/08 16:04:05;;;;;;;;;;;;;;;;;;4453136;32;19992;-83
2022/03/08 16:06:30;;;;;;;;;;;;;;;;;;4452817;32;19967;-81
2022/03/08 16:08:56;;;;;;;;;;;;;;;;;;4452715;32;19939;-76
2022/03/08 16:11:21;;;;;;;;;;;;;;;;;;4466874;32;20357;-81
2022/03/08 16:13:46;;;;;;;;;;;;;;;;;;4466875;32;19940;-79
2022/03/08 16:16:12;;;;;;;;;;;;;;;;;;4466735;32;20023;-82
2022/03/08 16:18:37;;;;;;;;;;;;;;;;;;4452622;32;19940;-79
2022/03/08 16:21:05;;;;;;;;;;;;;;;;;;4453035;32;19933;-80
2022/03/08 16:25:43;;;;;;;9.20;6.47;;;;;;;;;;4464439;32;20041;-76
2022/03/08 16:28:09;;;;;;;;;;;;;;;;;;4449304;32;20058;-84
2022/03/08 16:30:35;;;;;;;11.40;6.75;;;;;;;;;;4435034;32;19952;-83
2022/03/08 16:33:00;;;;;;;;;;;;;;;;;;4450785;32;20052;-83
2022/03/08 16:35:29;;;;;;;13.35;7.70;;;;;;;;;;4450443;32;19932;-82
2022/03/08 16:37:54;;;;;;;14.27;6.78;;;;;;;;;;4435472;32;20441;-81
2022/03/08 16:40:20;;;;;;;;;;;;;;;;;;4449556;32;20030;-81
2022/03/08 16:42:50;;;;;;;10.70;6.68;;;;;;;;;;4424369;32;20270;-82
2022/03/08 16:45:15;;;;;;;16.30;8.07;;;;;;;;;;4420091;32;20048;-83
2022/03/08 16:47:46;;;;;;;;;;;;;;;;;;4420823;32;20041;-82
2022/03/08 16:50:25;;;;;;;11.63;7.07;;;;;;;;;;4420844;32;19929;-80
2022/03/08 16:52:51;;;;;;;12.32;6.07;;;;;;;;;;4419963;32;20053;-82
2022/03/08 16:55:18;;;;;;;;;;;;;;;;;;4419840;32;20061;-82
2022/03/08 16:57:47;;;;;;;15.02;7.12;;;;;;;;;;4434872;32;19947;-82
2022/03/08 17:00:18;;;;;;;10.68;7.03;;;;;;;;;;4434028;32;20030;-81
2022/03/08 17:02:53;;;;;;;15.70;7.15;;;;;;;;;;4419893;32;20017;-82
2022/03/08 17:05:34;;;;;;;11.32;6.62;;;;;;;;;;4419667;32;20025;-82
2022/03/08 17:07:59;;;;;;;11.02;6.97;;;;;;;;;;4419437;32;20053;-83